Private Wetterstation Sandau
Wetterdaten: Dienstag, 19.03.2013
Datum Zeit Temp. A. Feuchte A. Luftdruck Regen Wind Richtung Richtung Taupunkt Windchill
19.03.2013 00:01 -1,6 C 89 % 996,6 hPa 0,0 l/m 2,5 km/h (1 Bft) NO 45 -3,2 C -1,6 C
19.03.2013 00:06 -1,6 C 89 % 996,6 hPa 0,0 l/m 2,5 km/h (1 Bft) NO 45 -3,2 C -1,6 C
19.03.2013 00:11 -1,6 C 89 % 996,6 hPa 0,0 l/m 7,2 km/h (2 Bft) O-NO 67 -3,2 C -4,3 C
19.03.2013 00:16 -1,6 C 89 % 996,5 hPa 0,0 l/m 0,0 km/h (0 Bft) NO 45 -3,2 C -1,6 C
19.03.2013 00:21 -1,6 C 89 % 996,7 hPa 0,0 l/m 3,2 km/h (1 Bft) NO 45 -3,2 C -1,6 C
19.03.2013 00:26 -1,6 C 89 % 996,5 hPa 0,0 l/m 0,0 km/h (0 Bft) NO 45 -3,2 C -1,6 C
19.03.2013 00:31 -1,6 C 89 % 996,5 hPa 0,0 l/m 3,6 km/h (1 Bft) NO 45 -3,2 C -1,6 C
19.03.2013 00:36 -1,6 C 89 % 996,5 hPa 0,0 l/m 3,6 km/h (1 Bft) N-NO 22 -3,2 C -1,6 C
19.03.2013 00:41 -1,6 C 89 % 996,5 hPa 0,0 l/m 3,6 km/h (1 Bft) O-NO 67 -3,2 C -1,6 C
19.03.2013 00:46 -1,6 C 89 % 996,4 hPa 0,0 l/m 1,1 km/h (1 Bft) N-NO 22 -3,2 C -1,6 C
19.03.2013 00:51 -1,6 C 89 % 996,4 hPa 0,0 l/m 8,6 km/h (2 Bft) O-NO 67 -3,2 C -4,8 C
19.03.2013 00:56 -1,6 C 89 % 996,4 hPa 0,0 l/m 6,1 km/h (2 Bft) N 360 -3,2 C -3,9 C
19.03.2013 01:01 -1,6 C 89 % 996,2 hPa 0,0 l/m 1,8 km/h (1 Bft) NO 45 -3,2 C -1,6 C
19.03.2013 01:06 -1,6 C 89 % 996,3 hPa 0,0 l/m 5,8 km/h (2 Bft) NO 45 -3,2 C -3,8 C
19.03.2013 01:11 -1,6 C 89 % 996,2 hPa 0,0 l/m 1,8 km/h (1 Bft) N 360 -3,2 C -1,6 C
19.03.2013 01:16 -1,6 C 89 % 996,3 hPa 0,0 l/m 2,5 km/h (1 Bft) NO 45 -3,2 C -1,6 C
19.03.2013 01:21 -1,6 C 89 % 996,2 hPa 0,0 l/m 6,5 km/h (2 Bft) N 360 -3,2 C -4,1 C
19.03.2013 01:26 -1,6 C 89 % 996,2 hPa 0,0 l/m 0,0 km/h (0 Bft) NO 45 -3,2 C -1,6 C
19.03.2013 01:31 -1,6 C 89 % 996,3 hPa 0,0 l/m 9,0 km/h (2 Bft) O-NO 67 -3,2 C -4,9 C
19.03.2013 01:36 -1,6 C 89 % 996,3 hPa 0,0 l/m 4,3 km/h (1 Bft) NO 45 -3,2 C -1,6 C
19.03.2013 01:41 -1,6 C 89 % 996,2 hPa 0,0 l/m 4,7 km/h (1 Bft) N 360 -3,2 C -3,3 C
19.03.2013 01:46 -1,6 C 89 % 996,2 hPa 0,0 l/m 2,9 km/h (1 Bft) N-NO 22 -3,2 C -1,6 C
19.03.2013 01:51 -1,6 C 89 % 996,1 hPa 0,0 l/m 4,0 km/h (1 Bft) N-NO 22 -3,2 C -1,6 C
19.03.2013 01:56 -1,6 C 89 % 996,1 hPa 0,0 l/m 4,0 km/h (1 Bft) N-NO 22 -3,2 C -1,6 C
19.03.2013 02:01 -1,6 C 89 % 995,9 hPa 0,0 l/m 3,6 km/h (1 Bft) O-NO 67 -3,2 C -1,6 C
19.03.2013 02:06 -1,6 C 90 % 995,9 hPa 0,0 l/m 3,2 km/h (1 Bft) N-NO 22 -3,0 C -1,6 C
19.03.2013 02:11 -1,6 C 90 % 995,9 hPa 0,0 l/m 4,7 km/h (1 Bft) N-NO 22 -3,0 C -3,3 C
19.03.2013 02:16 -1,6 C 90 % 995,9 hPa 0,0 l/m 3,2 km/h (1 Bft) N 360 -3,0 C -1,6 C
19.03.2013 02:21 -1,6 C 90 % 995,8 hPa 0,0 l/m 6,5 km/h (2 Bft) N 360 -3,0 C -4,1 C
19.03.2013 02:26 -1,7 C 90 % 995,7 hPa 0,0 l/m 4,0 km/h (1 Bft) O-NO 67 -3,1 C -1,7 C
19.03.2013 02:31 -1,7 C 90 % 995,6 hPa 0,0 l/m 5,8 km/h (2 Bft) N-NO 22 -3,1 C -3,9 C
19.03.2013 02:36 -1,6 C 90 % 995,7 hPa 0,0 l/m 6,5 km/h (2 Bft) N 360 -3,0 C -4,1 C
19.03.2013 02:41 -1,7 C 90 % 995,5 hPa 0,0 l/m 4,7 km/h (1 Bft) N 360 -3,1 C -3,4 C
19.03.2013 02:46 -1,7 C 90 % 995,7 hPa 0,0 l/m 5,8 km/h (2 Bft) NO 45 -3,1 C -3,9 C
19.03.2013 02:51 -1,7 C 90 % 995,5 hPa 0,0 l/m 1,4 km/h (1 Bft) NO 45 -3,1 C -1,7 C
19.03.2013 02:56 -1,7 C 90 % 995,4 hPa 0,0 l/m 9,4 km/h (2 Bft) N 360 -3,1 C -5,2 C
19.03.2013 03:01 -1,7 C 90 % 995,5 hPa 0,0 l/m 2,5 km/h (1 Bft) NO 45 -3,1 C -1,7 C
19.03.2013 03:06 -1,7 C 90 % 995,4 hPa 0,0 l/m 3,6 km/h (1 Bft) N-NO 22 -3,1 C -1,7 C
19.03.2013 03:11 -1,7 C 90 % 995,4 hPa 0,0 l/m 6,1 km/h (2 Bft) O-NO 67 -3,1 C -4,0 C
19.03.2013 03:16 -1,7 C 90 % 995,4 hPa 0,0 l/m 4,3 km/h (1 Bft) O-NO 67 -3,1 C -1,7 C
19.03.2013 03:21 -1,7 C 90 % 995,4 hPa 0,0 l/m 4,3 km/h (1 Bft) NO 45 -3,1 C -1,7 C
19.03.2013 03:26 -1,7 C 90 % 995,2 hPa 0,0 l/m 2,9 km/h (1 Bft) NO 45 -3,1 C -1,7 C
19.03.2013 03:31 -1,7 C 90 % 995,4 hPa 0,0 l/m 4,3 km/h (1 Bft) O-NO 67 -3,1 C -1,7 C
19.03.2013 03:36 -1,7 C 90 % 995,4 hPa 0,0 l/m 4,0 km/h (1 Bft) NO 45 -3,1 C -1,7 C
19.03.2013 03:41 -1,7 C 90 % 995,2 hPa 0,0 l/m 3,2 km/h (1 Bft) N 360 -3,1 C -1,7 C
19.03.2013 03:46 -1,7 C 90 % 995,3 hPa 0,0 l/m 3,6 km/h (1 Bft) NO 45 -3,1 C -1,7 C
19.03.2013 03:51 -1,7 C 90 % 995,4 hPa 0,0 l/m 4,3 km/h (1 Bft) O-NO 67 -3,1 C -1,7 C
19.03.2013 03:56 -1,7 C 90 % 995,5 hPa 0,0 l/m 6,1 km/h (2 Bft) N-NO 22 -3,1 C -4,0 C
19.03.2013 04:01 -1,7 C 90 % 995,2 hPa 0,0 l/m 4,0 km/h (1 Bft) NO 45 -3,1 C -1,7 C
19.03.2013 04:06 -1,7 C 90 % 995,3 hPa 0,0 l/m 3,6 km/h (1 Bft) N 360 -3,1 C -1,7 C
19.03.2013 04:11 -1,7 C 90 % 995,4 hPa 0,0 l/m 6,5 km/h (2 Bft) N 360 -3,1 C -4,2 C
19.03.2013 04:16 -1,7 C 90 % 995,5 hPa 0,0 l/m 8,6 km/h (2 Bft) N 360 -3,1 C -4,9 C
19.03.2013 04:21 -1,7 C 90 % 995,4 hPa 0,0 l/m 4,3 km/h (1 Bft) N 360 -3,1 C -1,7 C
19.03.2013 04:26 -1,8 C 90 % 995,5 hPa 0,0 l/m 3,2 km/h (1 Bft) N-NO 22 -3,2 C -1,8 C
19.03.2013 04:31 -1,8 C 90 % 995,5 hPa 0,0 l/m 11,5 km/h (2 Bft) N-NO 22 -3,2 C -5,9 C
19.03.2013 04:36 -1,8 C 90 % 995,6 hPa 0,0 l/m 10,8 km/h (2 Bft) N-NO 22 -3,2 C -5,7 C
19.03.2013 04:41 -1,8 C 90 % 995,4 hPa 0,0 l/m 4,7 km/h (1 Bft) N 360 -3,2 C -3,5 C
19.03.2013 04:46 -1,8 C 90 % 995,4 hPa 0,0 l/m 6,5 km/h (2 Bft) N 360 -3,2 C -4,3 C
19.03.2013 04:51 -1,8 C 90 % 995,5 hPa 0,0 l/m 2,9 km/h (1 Bft) NO 45 -3,2 C -1,8 C
19.03.2013 04:56 -1,8 C 90 % 995,4 hPa 0,0 l/m 6,8 km/h (2 Bft) N-NO 22 -3,2 C -4,4 C
19.03.2013 05:01 -1,8 C 90 % 995,7 hPa 0,0 l/m 7,6 km/h (2 Bft) N-NO 22 -3,2 C -4,7 C
19.03.2013 05:06 -1,8 C 90 % 995,5 hPa 0,0 l/m 5,8 km/h (2 Bft) N-NO 22 -3,2 C -4,0 C
19.03.2013 05:11 -1,8 C 90 % 995,6 hPa 0,0 l/m 9,4 km/h (2 Bft) NO 45 -3,2 C -5,3 C
19.03.2013 05:16 -1,8 C 90 % 995,6 hPa 0,0 l/m 12,2 km/h (2 Bft) N 360 -3,2 C -6,0 C
19.03.2013 05:21 -1,8 C 90 % 995,6 hPa 0,0 l/m 3,2 km/h (1 Bft) N-NO 22 -3,2 C -1,8 C
19.03.2013 05:26 -1,8 C 90 % 995,6 hPa 0,0 l/m 6,1 km/h (2 Bft) N 360 -3,2 C -4,1 C
19.03.2013 05:31 -1,8 C 90 % 995,8 hPa 0,0 l/m 7,6 km/h (2 Bft) N 360 -3,2 C -4,7 C
19.03.2013 05:36 -1,8 C 90 % 995,7 hPa 0,0 l/m 5,0 km/h (1 Bft) N-NO 22 -3,2 C -3,6 C
19.03.2013 05:41 -1,8 C 90 % 995,7 hPa 0,0 l/m 8,3 km/h (2 Bft) N 360 -3,2 C -5,0 C
19.03.2013 05:46 -1,8 C 90 % 995,7 hPa 0,0 l/m 3,2 km/h (1 Bft) N-NO 22 -3,2 C -1,8 C
19.03.2013 05:51 -1,8 C 90 % 995,7 hPa 0,0 l/m 6,1 km/h (2 Bft) N-NO 22 -3,2 C -4,1 C
19.03.2013 05:56 -1,8 C 90 % 995,6 hPa 0,0 l/m 8,6 km/h (2 Bft) NO 45 -3,2 C -5,0 C
19.03.2013 06:01 -1,8 C 90 % 995,8 hPa 0,0 l/m 5,0 km/h (1 Bft) NO 45 -3,2 C -3,6 C
19.03.2013 06:06 -1,8 C 90 % 995,8 hPa 0,0 l/m 6,1 km/h (2 Bft) N-NO 22 -3,2 C -4,1 C
19.03.2013 06:11 -1,8 C 90 % 995,8 hPa 0,0 l/m 4,7 km/h (1 Bft) N-NO 22 -3,2 C -3,5 C
19.03.2013 06:16 -1,8 C 90 % 995,7 hPa 0,0 l/m 6,1 km/h (2 Bft) N-NO 22 -3,2 C -4,1 C
19.03.2013 06:21 -1,8 C 90 % 995,8 hPa 0,0 l/m 4,7 km/h (1 Bft) N-NO 22 -3,2 C -3,5 C
19.03.2013 06:26 -1,9 C 90 % 995,8 hPa 0,0 l/m 4,7 km/h (1 Bft) N-NO 22 -3,3 C -3,6 C
19.03.2013 06:31 -1,9 C 90 % 995,8 hPa 0,0 l/m 0,0 km/h (0 Bft) N-NO 22 -3,3 C -1,9 C
19.03.2013 06:36 -1,8 C 90 % 995,8 hPa 0,0 l/m 11,2 km/h (2 Bft) N-NO 22 -3,2 C -5,8 C
19.03.2013 06:41 -1,9 C 90 % 996,1 hPa 0,0 l/m 5,0 km/h (1 Bft) N-NO 22 -3,3 C -3,7 C
19.03.2013 06:46 -1,8 C 91 % 996,1 hPa 0,0 l/m 9,7 km/h (2 Bft) N-NO 22 -3,1 C -5,4 C
19.03.2013 06:51 -1,8 C 91 % 996,2 hPa 0,0 l/m 6,8 km/h (2 Bft) N-NO 22 -3,1 C -4,4 C
19.03.2013 06:56 -1,8 C 90 % 996,1 hPa 0,0 l/m 6,1 km/h (2 Bft) N-NO 22 -3,2 C -4,1 C
19.03.2013 07:01 -1,8 C 90 % 996,2 hPa 0,0 l/m 6,1 km/h (2 Bft) N 360 -3,2 C -4,1 C
19.03.2013 07:06 -1,8 C 90 % 996,3 hPa 0,0 l/m 5,0 km/h (1 Bft) N-NO 22 -3,2 C -3,6 C
19.03.2013 07:11 -1,8 C 90 % 996,4 hPa 0,0 l/m 3,2 km/h (1 Bft) N-NO 22 -3,2 C -1,8 C
19.03.2013 07:16 -1,8 C 90 % 996,2 hPa 0,0 l/m 6,5 km/h (2 Bft) N 360 -3,2 C -4,3 C
19.03.2013 07:21 -1,8 C 90 % 996,2 hPa 0,0 l/m 2,5 km/h (1 Bft) N-NO 22 -3,2 C -1,8 C
19.03.2013 07:26 -1,7 C 90 % 996,1 hPa 0,0 l/m 6,5 km/h (2 Bft) N 360 -3,1 C -4,2 C
19.03.2013 07:31 -1,7 C 90 % 996,3 hPa 0,0 l/m 4,0 km/h (1 Bft) N 360 -3,1 C -1,7 C
19.03.2013 07:36 -1,7 C 90 % 996,3 hPa 0,0 l/m 4,0 km/h (1 Bft) N-NW 337 -3,1 C -1,7 C
19.03.2013 07:41 -1,7 C 90 % 996,3 hPa 0,0 l/m 12,2 km/h (2 Bft) N-NO 22 -3,1 C -5,9 C
19.03.2013 07:46 -1,7 C 89 % 996,3 hPa 0,0 l/m 4,0 km/h (1 Bft) N-NO 22 -3,3 C -1,7 C
19.03.2013 07:51 -1,6 C 89 % 996,2 hPa 0,0 l/m 11,5 km/h (2 Bft) N 360 -3,2 C -5,6 C
19.03.2013 07:56 -1,6 C 89 % 996,1 hPa 0,0 l/m 5,4 km/h (1 Bft) N-NO 22 -3,2 C -3,6 C
19.03.2013 08:01 -1,6 C 89 % 996,2 hPa 0,0 l/m 5,4 km/h (1 Bft) N-NO 22 -3,2 C -3,6 C
19.03.2013 08:06 -1,6 C 89 % 996,0 hPa 0,0 l/m 4,0 km/h (1 Bft) NO 45 -3,2 C -1,6 C
19.03.2013 08:11 -1,5 C 89 % 996,2 hPa 0,0 l/m 7,9 km/h (2 Bft) N 360 -3,1 C -4,5 C
19.03.2013 08:16 -1,4 C 89 % 996,4 hPa 0,0 l/m 6,5 km/h (2 Bft) N-NO 22 -3,0 C -3,8 C
19.03.2013 08:21 -1,3 C 89 % 996,3 hPa 0,0 l/m 7,9 km/h (2 Bft) N 360 -2,9 C -4,2 C
19.03.2013 08:26 -1,2 C 89 % 996,3 hPa 0,0 l/m 4,7 km/h (1 Bft) N-NO 22 -2,8 C -2,8 C
19.03.2013 08:31 -1,2 C 88 % 996,2 hPa 0,0 l/m 9,7 km/h (2 Bft) N 360 -2,9 C -4,7 C
19.03.2013 08:36 -1,1 C 88 % 996,4 hPa 0,0 l/m 3,6 km/h (1 Bft) N 360 -2,8 C -1,1 C
19.03.2013 08:41 -1,1 C 88 % 996,4 hPa 0,0 l/m 6,8 km/h (2 Bft) N-NO 22 -2,8 C -3,6 C
19.03.2013 08:46 -1,1 C 88 % 996,5 hPa 0,0 l/m 5,0 km/h (1 Bft) N-NO 22 -2,8 C -2,8 C
19.03.2013 08:51 -1,1 C 88 % 996,5 hPa 0,0 l/m 4,7 km/h (1 Bft) N-NO 22 -2,8 C -2,7 C
19.03.2013 08:56 -1,0 C 88 % 996,4 hPa 0,0 l/m 7,9 km/h (2 Bft) NO 45 -2,7 C -3,9 C
19.03.2013 09:01 -1,1 C 88 % 996,4 hPa 0,0 l/m 7,2 km/h (2 Bft) N 360 -2,8 C -3,8 C
19.03.2013 09:06 -0,9 C 88 % 996,3 hPa 0,0 l/m 3,6 km/h (1 Bft) N-NW 337 -2,6 C -0,9 C
19.03.2013 09:11 -0,8 C 88 % 996,4 hPa 0,0 l/m 4,7 km/h (1 Bft) N-NO 22 -2,5 C -2,3 C
19.03.2013 09:16 -0,7 C 88 % 996,3 hPa 0,0 l/m 7,6 km/h (2 Bft) N 360 -2,4 C -3,4 C
19.03.2013 09:21 -0,7 C 87 % 996,4 hPa 0,0 l/m 6,1 km/h (2 Bft) NO 45 -2,6 C -2,9 C
19.03.2013 09:26 -0,5 C 87 % 996,4 hPa 0,0 l/m 9,7 km/h (2 Bft) N-NO 22 -2,4 C -3,8 C
19.03.2013 09:31 -0,6 C 87 % 996,6 hPa 0,0 l/m 5,8 km/h (2 Bft) N-NO 22 -2,5 C -2,6 C
19.03.2013 09:36 -0,5 C 87 % 996,6 hPa 0,0 l/m 7,2 km/h (2 Bft) N 360 -2,4 C -3,1 C
19.03.2013 09:41 -0,4 C 86 % 996,6 hPa 0,0 l/m 6,5 km/h (2 Bft) N-NO 22 -2,4 C -2,7 C
19.03.2013 09:46 -0,2 C 86 % 996,7 hPa 0,0 l/m 6,1 km/h (2 Bft) N-NO 22 -2,3 C -2,3 C
19.03.2013 09:51 -0,1 C 86 % 996,6 hPa 0,0 l/m 10,1 km/h (2 Bft) N 360 -2,2 C -3,5 C
19.03.2013 09:56 -0,1 C 86 % 996,8 hPa 0,0 l/m 6,5 km/h (2 Bft) NO 45 -2,2 C -2,3 C
19.03.2013 10:01 0,1 C 85 % 996,7 hPa 0,0 l/m 6,5 km/h (2 Bft) N 360 -2,1 C -2,1 C
19.03.2013 10:06 0,1 C 85 % 996,7 hPa 0,0 l/m 7,9 km/h (2 Bft) N 360 -2,1 C -2,6 C
19.03.2013 10:11 0,1 C 85 % 996,8 hPa 0,0 l/m 4,0 km/h (1 Bft) N-NO 22 -2,1 C 0,1 C
19.03.2013 10:16 0,2 C 84 % 996,9 hPa 0,0 l/m 10,1 km/h (2 Bft) NW 315 -2,2 C -3,1 C
19.03.2013 10:21 0,2 C 84 % 997,0 hPa 0,0 l/m 6,5 km/h (2 Bft) NO 45 -2,2 C -2,0 C
19.03.2013 10:26 0,1 C 84 % 996,7 hPa 0,0 l/m 5,4 km/h (1 Bft) N-NO 22 -2,3 C -1,7 C
19.03.2013 10:31 0,2 C 84 % 996,8 hPa 0,0 l/m 3,2 km/h (1 Bft) NO 45 -2,2 C 0,2 C
19.03.2013 10:36 0,5 C 84 % 996,9 hPa 0,0 l/m 8,6 km/h (2 Bft) N-NO 22 -1,9 C -2,3 C
19.03.2013 10:41 0,7 C 84 % 996,9 hPa 0,0 l/m 4,7 km/h (1 Bft) NO 45 -1,7 C -0,7 C
19.03.2013 10:46 0,9 C 84 % 996,9 hPa 0,0 l/m 5,8 km/h (2 Bft) N-NW 337 -1,5 C -0,9 C
19.03.2013 10:51 1,3 C 83 % 996,9 hPa 0,0 l/m 2,9 km/h (1 Bft) N 360 -1,3 C 1,3 C
19.03.2013 10:56 1,3 C 83 % 996,9 hPa 0,0 l/m 6,5 km/h (2 Bft) N-NW 337 -1,3 C -0,7 C
19.03.2013 11:01 1,4 C 83 % 997,0 hPa 0,0 l/m 7,6 km/h (2 Bft) N-NW 337 -1,2 C -1,0 C
19.03.2013 11:06 1,6 C 82 % 997,0 hPa 0,0 l/m 4,7 km/h (1 Bft) NW 315 -1,1 C 0,4 C
19.03.2013 11:11 1,8 C 82 % 997,0 hPa 0,0 l/m 3,2 km/h (1 Bft) NW 315 -0,9 C 1,8 C
19.03.2013 11:16 1,9 C 81 % 997,1 hPa 0,0 l/m 1,8 km/h (1 Bft) W-NW 292 -1,0 C 1,9 C
19.03.2013 11:21 1,9 C 81 % 997,2 hPa 0,0 l/m 4,7 km/h (1 Bft) N-NW 337 -1,0 C 0,7 C
19.03.2013 11:26 1,8 C 80 % 997,2 hPa 0,0 l/m 4,0 km/h (1 Bft) W-NW 292 -1,3 C 1,8 C
19.03.2013 11:31 1,8 C 80 % 997,3 hPa 0,0 l/m 4,0 km/h (1 Bft) NW 315 -1,3 C 1,8 C
19.03.2013 11:36 1,7 C 80 % 997,2 hPa 0,0 l/m 10,8 km/h (2 Bft) W-NW 292 -1,4 C -1,5 C
19.03.2013 11:41 1,6 C 80 % 997,3 hPa 0,0 l/m 2,5 km/h (1 Bft) W-NW 292 -1,5 C 1,6 C
19.03.2013 11:46 1,6 C 80 % 997,4 hPa 0,0 l/m 8,6 km/h (2 Bft) N-NW 337 -1,5 C -1,0 C
19.03.2013 11:51 1,9 C 81 % 997,4 hPa 0,0 l/m 10,1 km/h (2 Bft) NW 315 -1,0 C -1,1 C
19.03.2013 11:56 1,9 C 80 % 997,3 hPa 0,0 l/m 5,0 km/h (1 Bft) N-NW 337 -1,2 C 0,6 C
19.03.2013 12:01 1,8 C 80 % 997,4 hPa 0,0 l/m 4,7 km/h (1 Bft) SW 225 -1,3 C 0,6 C
19.03.2013 12:06 1,8 C 80 % 997,4 hPa 0,0 l/m 11,5 km/h (2 Bft) NW 315 -1,3 C -1,5 C
19.03.2013 12:11 1,9 C 80 % 997,5 hPa 0,0 l/m 9,7 km/h (2 Bft) W-NW 292 -1,2 C -1,0 C
19.03.2013 12:16 2,1 C 80 % 997,6 hPa 0,0 l/m 4,3 km/h (1 Bft) W 270 -1,0 C 2,1 C
19.03.2013 12:21 2,3 C 79 % 997,6 hPa 0,0 l/m 3,2 km/h (1 Bft) N-NW 337 -1,0 C 2,3 C
19.03.2013 12:26 2,4 C 79 % 997,7 hPa 0,0 l/m 8,3 km/h (2 Bft) NW 315 -0,9 C -0,0 C
19.03.2013 12:31 2,6 C 79 % 997,7 hPa 0,0 l/m 6,1 km/h (2 Bft) NW 315 -0,7 C 0,9 C
19.03.2013 12:36 2,7 C 78 % 997,6 hPa 0,0 l/m 6,8 km/h (2 Bft) NW 315 -0,7 C 0,8 C
19.03.2013 12:41 2,6 C 78 % 997,7 hPa 0,0 l/m 0,0 km/h (0 Bft) NW 315 -0,8 C 2,6 C
19.03.2013 12:46 2,9 C 77 % 997,9 hPa 0,0 l/m 4,7 km/h (1 Bft) N 360 -0,7 C 1,8 C
19.03.2013 12:51 2,9 C 77 % 997,9 hPa 0,0 l/m 6,5 km/h (2 Bft) W-NW 292 -0,7 C 1,1 C
19.03.2013 12:56 2,9 C 76 % 997,9 hPa 0,0 l/m 4,0 km/h (1 Bft) NW 315 -0,9 C 2,9 C
19.03.2013 13:01 2,8 C 76 % 997,9 hPa 0,0 l/m 10,4 km/h (2 Bft) NW 315 -1,0 C -0,1 C
19.03.2013 13:06 2,6 C 76 % 998,0 hPa 0,0 l/m 2,5 km/h (1 Bft) N-NO 22 -1,2 C 2,6 C
19.03.2013 13:11 2,2 C 77 % 997,9 hPa 0,0 l/m 2,9 km/h (1 Bft) W 270 -1,4 C 2,2 C
19.03.2013 13:16 1,9 C 77 % 997,9 hPa 0,0 l/m 7,6 km/h (2 Bft) NW 315 -1,7 C -0,4 C
19.03.2013 13:21 1,8 C 78 % 998,1 hPa 0,0 l/m 2,5 km/h (1 Bft) NW 315 -1,6 C 1,8 C
19.03.2013 13:26 1,9 C 78 % 997,9 hPa 0,0 l/m 14,4 km/h (3 Bft) W-NW 292 -1,5 C -2,0 C
19.03.2013 13:31 2,1 C 78 % 998,0 hPa 0,0 l/m 7,6 km/h (2 Bft) NW 315 -1,3 C -0,2 C
19.03.2013 13:36 2,3 C 78 % 997,9 hPa 0,0 l/m 14,4 km/h (3 Bft) N 360 -1,1 C -1,5 C
19.03.2013 13:41 2,3 C 77 % 998,0 hPa 0,0 l/m 16,9 km/h (3 Bft) W-NW 292 -1,3 C -1,9 C
19.03.2013 13:46 2,4 C 77 % 998,0 hPa 0,0 l/m 6,5 km/h (2 Bft) NW 315 -1,2 C 0,6 C
19.03.2013 13:51 2,1 C 77 % 998,0 hPa 0,0 l/m 3,6 km/h (1 Bft) N-NW 337 -1,5 C 2,1 C
19.03.2013 13:56 1,9 C 77 % 998,0 hPa 0,0 l/m 10,8 km/h (2 Bft) NW 315 -1,7 C -1,2 C
19.03.2013 14:01 1,9 C 78 % 997,9 hPa 0,0 l/m 3,6 km/h (1 Bft) NW 315 -1,5 C 1,9 C
19.03.2013 14:06 1,9 C 78 % 998,0 hPa 0,0 l/m 3,6 km/h (1 Bft) W 270 -1,5 C 1,9 C
19.03.2013 14:11 1,9 C 79 % 998,0 hPa 0,0 l/m 10,1 km/h (2 Bft) W-NW 292 -1,3 C -1,1 C
19.03.2013 14:16 1,8 C 79 % 997,9 hPa 0,0 l/m 6,5 km/h (2 Bft) NW 315 -1,4 C -0,1 C
19.03.2013 14:21 1,8 C 79 % 998,0 hPa 0,0 l/m 4,0 km/h (1 Bft) W 270 -1,4 C 1,8 C
19.03.2013 14:26 1,9 C 79 % 998,0 hPa 0,0 l/m 7,6 km/h (2 Bft) NW 315 -1,3 C -0,4 C
19.03.2013 14:31 1,9 C 79 % 998,0 hPa 0,0 l/m 3,6 km/h (1 Bft) NW 315 -1,3 C 1,9 C
19.03.2013 14:36 1,9 C 79 % 998,2 hPa 0,0 l/m 7,6 km/h (2 Bft) W-NW 292 -1,3 C -0,4 C
19.03.2013 14:41 1,9 C 79 % 998,2 hPa 0,0 l/m 6,1 km/h (2 Bft) W-NW 292 -1,3 C 0,1 C
19.03.2013 14:46 1,9 C 79 % 998,2 hPa 0,0 l/m 3,2 km/h (1 Bft) N-NW 337 -1,3 C 1,9 C
19.03.2013 14:51 1,9 C 79 % 998,2 hPa 0,0 l/m 15,8 km/h (3 Bft) NW 315 -1,3 C -2,2 C
19.03.2013 14:56 1,9 C 80 % 998,2 hPa 0,0 l/m 8,6 km/h (2 Bft) W-NW 292 -1,2 C -0,7 C
19.03.2013 15:01 1,9 C 80 % 998,3 hPa 0,0 l/m 11,9 km/h (2 Bft) W-NW 292 -1,2 C -1,5 C
19.03.2013 15:06 1,9 C 80 % 998,3 hPa 0,0 l/m 8,3 km/h (2 Bft) W 270 -1,2 C -0,6 C
19.03.2013 15:11 1,9 C 80 % 998,3 hPa 0,0 l/m 7,6 km/h (2 Bft) NW 315 -1,2 C -0,4 C
19.03.2013 15:16 1,9 C 80 % 998,3 hPa 0,0 l/m 2,5 km/h (1 Bft) N-NW 337 -1,2 C 1,9 C
19.03.2013 15:21 1,9 C 80 % 998,5 hPa 0,0 l/m 5,0 km/h (1 Bft) N-NW 337 -1,2 C 0,6 C
19.03.2013 15:26 1,9 C 80 % 998,5 hPa 0,0 l/m 4,7 km/h (1 Bft) NW 315 -1,2 C 0,7 C
19.03.2013 15:31 1,9 C 80 % 998,5 hPa 0,0 l/m 3,6 km/h (1 Bft) N-NO 22 -1,2 C 1,9 C
19.03.2013 15:36 1,9 C 80 % 998,6 hPa 0,0 l/m 1,4 km/h (1 Bft) NW 315 -1,2 C 1,9 C
19.03.2013 15:41 1,8 C 80 % 998,7 hPa 0,0 l/m 0,0 km/h (0 Bft) NW 315 -1,3 C 1,8 C
19.03.2013 15:46 1,6 C 80 % 998,6 hPa 0,0 l/m 0,0 km/h (0 Bft) W-NW 292 -1,5 C 1,6 C
19.03.2013 15:51 1,6 C 80 % 998,7 hPa 0,0 l/m 5,4 km/h (1 Bft) W-NW 292 -1,5 C 0,1 C
19.03.2013 15:56 1,3 C 81 % 998,7 hPa 0,0 l/m 6,1 km/h (2 Bft) W-NW 292 -1,6 C -0,6 C
19.03.2013 16:01 1,3 C 81 % 998,7 hPa 0,0 l/m 2,5 km/h (1 Bft) W-NW 292 -1,6 C 1,3 C
19.03.2013 16:06 1,2 C 81 % 998,7 hPa 0,0 l/m 0,0 km/h (0 Bft) W-NW 292 -1,7 C 1,2 C
19.03.2013 16:11 1,1 C 82 % 998,6 hPa 0,0 l/m 0,0 km/h (0 Bft) NW 315 -1,6 C 1,1 C
19.03.2013 16:16 1,1 C 82 % 998,5 hPa 0,0 l/m 2,2 km/h (1 Bft) W-NW 292 -1,6 C 1,1 C
19.03.2013 16:21 0,9 C 82 % 998,6 hPa 0,0 l/m 4,3 km/h (1 Bft) N 360 -1,8 C 0,9 C
19.03.2013 16:26 0,4 C 84 % 998,7 hPa 0,0 l/m 3,2 km/h (1 Bft) N-NO 22 -2,0 C 0,4 C
19.03.2013 16:31 0,2 C 85 % 998,6 hPa 0,0 l/m 4,7 km/h (1 Bft) N-NO 22 -2,0 C -1,2 C
19.03.2013 16:36 0,2 C 86 % 998,6 hPa 0,0 l/m 4,7 km/h (1 Bft) N-NO 22 -1,9 C -1,2 C
19.03.2013 16:41 0,3 C 86 % 998,7 hPa 0,0 l/m 5,4 km/h (1 Bft) N-NO 22 -1,8 C -1,4 C
19.03.2013 16:46 0,3 C 85 % 998,8 hPa 0,0 l/m 4,0 km/h (1 Bft) N-NO 22 -1,9 C 0,3 C
19.03.2013 16:51 0,3 C 85 % 998,8 hPa 0,0 l/m 2,5 km/h (1 Bft) NO 45 -1,9 C 0,3 C
19.03.2013 16:56 0,3 C 85 % 998,8 hPa 0,0 l/m 0,0 km/h (0 Bft) W-NW 292 -1,9 C 0,3 C
19.03.2013 17:01 0,4 C 85 % 998,9 hPa 0,0 l/m 3,2 km/h (1 Bft) W 270 -1,8 C 0,4 C
19.03.2013 17:06 0,5 C 85 % 999,0 hPa 0,0 l/m 5,4 km/h (1 Bft) NW 315 -1,7 C -1,2 C
19.03.2013 17:11 0,4 C 85 % 998,8 hPa 0,0 l/m 4,7 km/h (1 Bft) N-NW 337 -1,8 C -1,0 C
19.03.2013 17:16 0,4 C 85 % 999,0 hPa 0,0 l/m 5,8 km/h (2 Bft) N-NW 337 -1,8 C -1,5 C
19.03.2013 17:21 0,3 C 85 % 998,9 hPa 0,0 l/m 3,2 km/h (1 Bft) N-NO 22 -1,9 C 0,3 C
19.03.2013 17:26 0,1 C 85 % 999,0 hPa 0,0 l/m 4,3 km/h (1 Bft) N 360 -2,1 C 0,1 C
19.03.2013 17:31 -0,1 C 86 % 999,1 hPa 0,0 l/m 4,3 km/h (1 Bft) N-NO 22 -2,2 C -0,1 C
19.03.2013 17:36 -0,4 C 86 % 999,1 hPa 0,0 l/m 13,3 km/h (3 Bft) NO 45 -2,4 C -4,6 C
19.03.2013 17:41 -0,5 C 87 % 999,3 hPa 0,0 l/m 8,6 km/h (2 Bft) NO 45 -2,4 C -3,5 C
19.03.2013 17:46 -0,6 C 88 % 999,4 hPa 0,0 l/m 11,5 km/h (2 Bft) N 360 -2,3 C -4,4 C
19.03.2013 17:51 -0,7 C 88 % 999,5 hPa 0,0 l/m 12,6 km/h (3 Bft) N-NO 22 -2,4 C -4,8 C
19.03.2013 17:56 -0,7 C 88 % 999,5 hPa 0,0 l/m 12,2 km/h (2 Bft) N-NW 337 -2,4 C -4,7 C
19.03.2013 18:01 -0,8 C 88 % 999,6 hPa 0,0 l/m 13,0 km/h (3 Bft) N 360 -2,5 C -5,0 C
19.03.2013 18:06 -0,9 C 88 % 999,7 hPa 0,0 l/m 4,0 km/h (1 Bft) N-NO 22 -2,6 C -0,9 C
19.03.2013 18:11 -0,9 C 88 % 999,7 hPa 0,0 l/m 9,0 km/h (2 Bft) NO 45 -2,6 C -4,1 C
19.03.2013 18:16 -0,9 C 88 % 999,8 hPa 0,0 l/m 5,0 km/h (1 Bft) N-NO 22 -2,6 C -2,6 C
19.03.2013 18:21 -1,0 C 88 % 999,8 hPa 0,0 l/m 7,9 km/h (2 Bft) N 360 -2,7 C -3,9 C
19.03.2013 18:26 -1,0 C 88 % 1000,0 hPa 0,0 l/m 6,5 km/h (2 Bft) N-NW 337 -2,7 C -3,4 C
19.03.2013 18:31 -1,1 C 88 % 1000,1 hPa 0,0 l/m 4,7 km/h (1 Bft) NO 45 -2,8 C -2,7 C
19.03.2013 18:36 -1,1 C 88 % 1000,1 hPa 0,0 l/m 4,0 km/h (1 Bft) N-NO 22 -2,8 C -1,1 C
19.03.2013 18:41 -1,1 C 88 % 1000,4 hPa 0,0 l/m 9,7 km/h (2 Bft) N 360 -2,8 C -4,5 C
19.03.2013 18:46 -1,1 C 88 % 1000,1 hPa 0,0 l/m 5,4 km/h (1 Bft) N-NO 22 -2,8 C -3,0 C
19.03.2013 18:51 -1,1 C 88 % 1000,3 hPa 0,0 l/m 4,0 km/h (1 Bft) N-NO 22 -2,8 C -1,1 C
19.03.2013 18:56 -1,1 C 88 % 1000,2 hPa 0,0 l/m 5,8 km/h (2 Bft) N 360 -2,8 C -3,2 C
19.03.2013 19:01 -1,1 C 88 % 1000,3 hPa 0,0 l/m 4,3 km/h (1 Bft) N 360 -2,8 C -1,1 C
19.03.2013 19:06 -1,1 C 88 % 1000,4 hPa 0,0 l/m 1,8 km/h (1 Bft) N-NO 22 -2,8 C -1,1 C
19.03.2013 19:11 -1,1 C 88 % 1000,3 hPa 0,0 l/m 4,7 km/h (1 Bft) N-NW 337 -2,8 C -2,7 C
19.03.2013 19:16 -1,1 C 89 % 1000,2 hPa 0,0 l/m 4,0 km/h (1 Bft) N-NW 337 -2,7 C -1,1 C
19.03.2013 19:21 -1,1 C 89 % 1000,3 hPa 0,0 l/m 5,0 km/h (1 Bft) N-NO 22 -2,7 C -2,8 C
19.03.2013 19:26 -1,1 C 89 % 1000,5 hPa 0,0 l/m 3,2 km/h (1 Bft) N-NO 22 -2,7 C -1,1 C
19.03.2013 19:31 -1,1 C 89 % 1000,5 hPa 0,0 l/m 6,8 km/h (2 Bft) N 360 -2,7 C -3,6 C
19.03.2013 19:36 -1,1 C 89 % 1000,5 hPa 0,0 l/m 3,6 km/h (1 Bft) N 360 -2,7 C -1,1 C
19.03.2013 19:41 -1,1 C 90 % 1000,4 hPa 0,0 l/m 7,9 km/h (2 Bft) N 360 -2,5 C -4,0 C
19.03.2013 19:46 -1,2 C 90 % 1000,6 hPa 0,0 l/m 8,3 km/h (2 Bft) N 360 -2,6 C -4,2 C
19.03.2013 19:51 -1,2 C 90 % 1000,6 hPa 0,0 l/m 3,6 km/h (1 Bft) N 360 -2,6 C -1,2 C
19.03.2013 19:56 -1,2 C 90 % 1000,6 hPa 0,0 l/m 3,6 km/h (1 Bft) NO 45 -2,6 C -1,2 C
19.03.2013 20:01 -1,2 C 90 % 1000,8 hPa 0,0 l/m 5,4 km/h (1 Bft) N 360 -2,6 C -3,1 C
19.03.2013 20:06 -1,2 C 90 % 1000,7 hPa 0,0 l/m 3,2 km/h (1 Bft) N-NO 22 -2,6 C -1,2 C
19.03.2013 20:11 -1,2 C 89 % 1000,8 hPa 0,0 l/m 8,6 km/h (2 Bft) N-NO 22 -2,8 C -4,3 C
19.03.2013 20:16 -1,3 C 89 % 1000,8 hPa 0,0 l/m 10,4 km/h (2 Bft) N 360 -2,9 C -5,0 C
19.03.2013 20:21 -1,4 C 89 % 1001,0 hPa 0,0 l/m 2,2 km/h (1 Bft) N-NO 22 -3,0 C -1,4 C
19.03.2013 20:26 -1,4 C 89 % 1001,1 hPa 0,0 l/m 0,0 km/h (0 Bft) N 360 -3,0 C -1,4 C
19.03.2013 20:31 -1,4 C 89 % 1001,1 hPa 0,0 l/m 1,1 km/h (1 Bft) W-NW 292 -3,0 C -1,4 C
19.03.2013 20:36 -1,5 C 89 % 1001,1 hPa 0,0 l/m 4,0 km/h (1 Bft) N-NO 22 -3,1 C -1,5 C
19.03.2013 20:41 -1,6 C 89 % 1001,0 hPa 0,0 l/m 4,7 km/h (1 Bft) NW 315 -3,2 C -3,3 C
19.03.2013 20:46 -1,6 C 89 % 1001,1 hPa 0,0 l/m 3,2 km/h (1 Bft) N 360 -3,2 C -1,6 C
19.03.2013 20:51 -1,6 C 89 % 1001,1 hPa 0,0 l/m 4,7 km/h (1 Bft) N-NO 22 -3,2 C -3,3 C
19.03.2013 20:56 -1,6 C 89 % 1001,1 hPa 0,0 l/m 4,0 km/h (1 Bft) NW 315 -3,2 C -1,6 C
19.03.2013 21:01 -1,6 C 89 % 1001,1 hPa 0,0 l/m 2,2 km/h (1 Bft) N-NW 337 -3,2 C -1,6 C
19.03.2013 21:06 -1,6 C 89 % 1001,2 hPa 0,0 l/m 3,2 km/h (1 Bft) N-NW 337 -3,2 C -1,6 C
19.03.2013 21:11 -1,5 C 89 % 1001,1 hPa 0,0 l/m 2,2 km/h (1 Bft) NO 45 -3,1 C -1,5 C
19.03.2013 21:16 -1,5 C 89 % 1001,2 hPa 0,0 l/m 5,8 km/h (2 Bft) N 360 -3,1 C -3,7 C
19.03.2013 21:21 -1,5 C 89 % 1001,1 hPa 0,0 l/m 3,6 km/h (1 Bft) NO 45 -3,1 C -1,5 C
19.03.2013 21:26 -1,5 C 89 % 1001,1 hPa 0,0 l/m 0,0 km/h (0 Bft) N-NW 337 -3,1 C -1,5 C
19.03.2013 21:31 -1,5 C 89 % 1001,0 hPa 0,0 l/m 1,8 km/h (1 Bft) NW 315 -3,1 C -1,5 C
19.03.2013 21:36 -1,4 C 89 % 1001,2 hPa 0,0 l/m 2,5 km/h (1 Bft) NW 315 -3,0 C -1,4 C
19.03.2013 21:41 -1,3 C 89 % 1001,2 hPa 0,0 l/m 6,8 km/h (2 Bft) W-NW 292 -2,9 C -3,8 C
19.03.2013 21:46 -1,2 C 89 % 1001,2 hPa 0,0 l/m 1,4 km/h (1 Bft) NW 315 -2,8 C -1,2 C
19.03.2013 21:51 -1,2 C 89 % 1001,2 hPa 0,0 l/m 4,0 km/h (1 Bft) N-NW 337 -2,8 C -1,2 C
19.03.2013 21:56 -1,2 C 89 % 1001,4 hPa 0,0 l/m 1,4 km/h (1 Bft) NW 315 -2,8 C -1,2 C
19.03.2013 22:01 -1,2 C 89 % 1001,4 hPa 0,0 l/m 2,9 km/h (1 Bft) N-NW 337 -2,8 C -1,2 C
19.03.2013 22:06 -1,2 C 90 % 1001,5 hPa 0,0 l/m 10,1 km/h (2 Bft) N-NW 337 -2,6 C -4,8 C
19.03.2013 22:11 -1,1 C 90 % 1001,3 hPa 0,0 l/m 6,1 km/h (2 Bft) NW 315 -2,5 C -3,3 C
19.03.2013 22:16 -1,1 C 90 % 1001,3 hPa 0,0 l/m 1,1 km/h (1 Bft) N 360 -2,5 C -1,1 C
19.03.2013 22:21 -1,1 C 90 % 1001,6 hPa 0,0 l/m 2,5 km/h (1 Bft) N-NW 337 -2,5 C -1,1 C
19.03.2013 22:26 -1,1 C 90 % 1001,6 hPa 0,0 l/m 4,0 km/h (1 Bft) W 270 -2,5 C -1,1 C
19.03.2013 22:31 -1,1 C 90 % 1001,7 hPa 0,0 l/m 5,8 km/h (2 Bft) W-NW 292 -2,5 C -3,2 C
19.03.2013 22:36 -1,1 C 90 % 1001,8 hPa 0,0 l/m 2,2 km/h (1 Bft) N-NW 337 -2,5 C -1,1 C
19.03.2013 22:41 -1,2 C 90 % 1001,7 hPa 0,0 l/m 4,7 km/h (1 Bft) N-NW 337 -2,6 C -2,8 C
19.03.2013 22:46 -1,2 C 90 % 1001,7 hPa 0,0 l/m 4,0 km/h (1 Bft) N-NW 337 -2,6 C -1,2 C
19.03.2013 22:51 -1,2 C 90 % 1001,9 hPa 0,0 l/m 5,0 km/h (1 Bft) NW 315 -2,6 C -3,0 C
19.03.2013 22:56 -1,2 C 90 % 1001,8 hPa 0,0 l/m 4,0 km/h (1 Bft) NW 315 -2,6 C -1,2 C
19.03.2013 23:01 -1,2 C 89 % 1001,9 hPa 0,0 l/m 0,0 km/h (0 Bft) NW 315 -2,8 C -1,2 C
19.03.2013 23:06 -1,2 C 89 % 1002,0 hPa 0,0 l/m 3,2 km/h (1 Bft) N-NW 337 -2,8 C -1,2 C
19.03.2013 23:11 -1,1 C 89 % 1002,0 hPa 0,0 l/m 2,5 km/h (1 Bft) N-NW 337 -2,7 C -1,1 C
19.03.2013 23:16 -1,2 C 89 % 1001,9 hPa 0,0 l/m 3,6 km/h (1 Bft) NW 315 -2,8 C -1,2 C
19.03.2013 23:21 -1,2 C 89 % 1002,3 hPa 0,0 l/m 7,6 km/h (2 Bft) N-NO 22 -2,8 C -4,0 C
19.03.2013 23:26 -1,2 C 89 % 1002,1 hPa 0,0 l/m 6,1 km/h (2 Bft) NO 45 -2,8 C -3,4 C
19.03.2013 23:31 -1,4 C 89 % 1002,2 hPa 0,0 l/m 7,9 km/h (2 Bft) N 360 -3,0 C -4,3 C
19.03.2013 23:36 -1,4 C 89 % 1002,3 hPa 0,0 l/m 4,3 km/h (1 Bft) N-NO 22 -3,0 C -1,4 C
19.03.2013 23:41 -1,4 C 89 % 1002,3 hPa 0,0 l/m 2,2 km/h (1 Bft) N-NO 22 -3,0 C -1,4 C
19.03.2013 23:46 -1,4 C 89 % 1002,3 hPa 0,0 l/m 6,1 km/h (2 Bft) W-NW 292 -3,0 C -3,7 C
19.03.2013 23:51 -1,5 C 89 % 1002,4 hPa 0,0 l/m 3,2 km/h (1 Bft) N-NW 337 -3,1 C -1,5 C
19.03.2013 23:56 -1,5 C 89 % 1002,5 hPa 0,0 l/m 3,6 km/h (1 Bft) N 360 -3,1 C -1,5 C
_ Min-Zeit 06:26 12:56 03:26 - 00:16 - - 06:26 05:16
Minimum _ -1,9 C 76 % 995,2 hPa - 0,0 km/h (0 Bft) - - -3,3 C -6,0 C
_ Max-Zeit 12:46 06:46 23:56 00:01 13:41 - - 12:31 12:56
Maximum _ 2,9 C 91 % 1002,5 hPa 0,0 l/m 16,9 km/h
W-NW (3 Bft)
- - -0,7 C 2,9 C
Durchschnitt _ -0,5 C 87 % 997,9 hPa #0,0 l/m 5,4 km/h (1 Bft) N-NO - -2,5 C -1,9 C
(c) by David Heller